createdAt,value
2024-04-23T00:01:20.329Z,99276.63
2024-04-23T00:04:07.406Z,99277.66
2024-04-23T00:07:01.270Z,99259.44
2024-04-23T00:09:49.906Z,99256.88
2024-04-23T00:12:36.539Z,99259.69
2024-04-23T00:15:23.210Z,99259.41
2024-04-23T00:18:10.009Z,99251.66
2024-04-23T00:20:56.769Z,99249.75
2024-04-23T00:23:43.091Z,99228.03
2024-04-23T00:26:29.808Z,99248.56
2024-04-23T00:29:16.367Z,99243.19
2024-04-23T00:32:03.242Z,99250.81
2024-04-23T00:34:49.976Z,99241.16
2024-04-23T00:37:36.563Z,99251.63
2024-04-23T00:40:23.289Z,99252.84
2024-04-23T00:43:09.671Z,99206.88
2024-04-23T00:45:59.624Z,99249.44
2024-04-23T00:48:46.164Z,99222.91
2024-04-23T00:51:32.735Z,99184.31
2024-04-23T00:54:21.765Z,99243.09
2024-04-23T00:57:08.450Z,99232.31
2024-04-23T00:59:55.075Z,99236.25
2024-04-23T01:02:42.372Z,99240.44
2024-04-23T01:05:28.879Z,99233.94
2024-04-23T02:39:26.082Z,99217.00
2024-04-23T02:42:12.782Z,99226.44
2024-04-23T02:44:59.399Z,99210.53
2024-04-23T02:47:46.045Z,99151.56
2024-04-23T02:50:32.491Z,99215.94
2024-04-23T02:53:19.243Z,99182.47
2024-04-23T02:56:06.150Z,99216.06
2024-04-23T02:58:52.674Z,99216.34
2024-04-23T03:01:39.262Z,99212.66
2024-04-23T03:04:25.794Z,99201.19
2024-04-23T03:07:13.971Z,99219.22
2024-04-23T03:10:00.832Z,99219.22
2024-04-23T03:12:47.190Z,99152.75
2024-04-23T03:15:33.761Z,99120.66
2024-04-23T03:18:20.413Z,99202.78
2024-04-23T03:21:06.916Z,99204.81
2024-04-23T03:23:53.545Z,99201.47
2024-04-23T03:26:40.216Z,99185.53
2024-04-23T03:29:26.841Z,99183.47
2024-04-23T03:32:13.457Z,99172.59
2024-04-23T03:35:00.219Z,99172.22
2024-04-23T03:37:46.741Z,99202.63
2024-04-23T03:40:33.360Z,99166.19
2024-04-23T03:43:20.144Z,99187.22
2024-04-23T03:46:06.666Z,99171.91
2024-04-23T03:48:53.307Z,99155.28
2024-04-23T03:51:40.152Z,99185.06
2024-04-23T03:54:26.646Z,99202.78
2024-04-23T03:57:13.248Z,99198.22
2024-04-23T04:00:00.083Z,99186.41
2024-04-23T04:03:05.436Z,99184.34
2024-04-23T04:06:10.251Z,99200.25
2024-04-23T04:08:58.183Z,99146.72
2024-04-23T04:11:46.003Z,99094.25
2024-04-23T04:14:32.794Z,99179.81
2024-04-23T04:17:19.553Z,99185.69
2024-04-23T04:20:07.672Z,99159.09
2024-04-23T04:22:54.332Z,99177.91
2024-04-23T04:25:40.841Z,99182.44
2024-04-23T04:28:27.299Z,99173.97
2024-04-23T04:31:14.156Z,99168.59
2024-04-23T04:34:00.720Z,99180.94
2024-04-23T04:36:47.397Z,99102.41
2024-04-23T04:39:40.465Z,99160.81
2024-04-23T04:42:27.023Z,99185.06
2024-04-23T04:45:13.424Z,99170.28
2024-04-23T04:48:00.281Z,99153.13
2024-04-23T04:50:46.742Z,99189.75
2024-04-23T04:53:33.341Z,99189.53
2024-04-23T04:56:20.285Z,99210.69
2024-04-23T04:59:06.710Z,99192.34
2024-04-23T05:01:53.209Z,99173.66
2024-04-23T05:04:39.619Z,99192.25
2024-04-23T05:07:26.296Z,99153.84
2024-04-23T05:10:12.976Z,99180.81
2024-04-23T05:12:59.598Z,99191.22
2024-04-23T05:15:46.410Z,99187.81
2024-04-23T05:18:35.702Z,99189.25
2024-04-23T05:21:23.586Z,99209.19
2024-04-23T05:24:10.257Z,99190.25
2024-04-23T05:26:57.042Z,99208.97
2024-04-23T05:29:45.000Z,99216.88
2024-04-23T05:32:49.963Z,99189.41
2024-04-23T05:35:36.795Z,99223.19
2024-04-23T05:38:23.643Z,99159.56
2024-04-23T05:41:10.206Z,99185.00
2024-04-23T05:43:57.297Z,99213.38
2024-04-23T05:46:43.578Z,99219.19
2024-04-23T05:50:07.912Z,99212.56
2024-04-23T05:53:50.802Z,99203.75
2024-04-23T05:56:56.250Z,99136.91
2024-04-23T05:59:42.774Z,99214.34
2024-04-23T06:02:29.344Z,99217.38
2024-04-23T06:05:16.089Z,99225.75
2024-04-23T06:08:02.838Z,99238.25
2024-04-23T06:10:49.425Z,99209.69
2024-04-23T06:13:37.862Z,99223.75
2024-04-23T06:16:25.058Z,99204.28
2024-04-23T06:19:11.926Z,99198.72
2024-04-23T06:22:00.549Z,99222.06
2024-04-23T06:24:48.840Z,99221.59
2024-04-23T06:27:37.633Z,99211.72
2024-04-23T06:30:23.890Z,99220.41
2024-04-23T06:33:10.875Z,99201.97
2024-04-23T06:35:57.743Z,99220.72
2024-04-23T06:38:44.306Z,99220.28
2024-04-23T06:41:31.007Z,99224.06
2024-04-23T06:44:17.799Z,99227.25
2024-04-23T06:47:04.305Z,99220.44
2024-04-23T06:49:50.937Z,99219.66
2024-04-23T06:52:37.633Z,99222.75
2024-04-23T06:55:24.110Z,99215.75
2024-04-23T06:58:10.482Z,99215.47
2024-04-23T07:01:00.766Z,99223.59
2024-04-23T07:03:47.342Z,99187.91
2024-04-23T07:06:33.943Z,99183.50
2024-04-23T07:09:20.617Z,99199.00
2024-04-23T07:12:07.622Z,99178.84
2024-04-23T07:14:54.607Z,99201.19
2024-04-23T07:17:41.181Z,99187.72
2024-04-23T07:20:28.147Z,99178.72
2024-04-23T07:23:14.809Z,99195.56
2024-04-23T07:26:01.782Z,99195.22
2024-04-23T07:28:48.268Z,99195.47
2024-04-23T07:31:34.916Z,99196.66
2024-04-23T07:34:21.596Z,99153.50
2024-04-23T07:37:08.213Z,99162.50
2024-04-23T07:39:54.893Z,99175.31
2024-04-23T07:42:41.596Z,99183.19
2024-04-23T07:45:27.998Z,99180.06
2024-04-23T07:48:14.589Z,99180.00
2024-04-23T07:51:01.219Z,99186.78
2024-04-23T07:53:47.941Z,99173.38
2024-04-23T07:56:34.452Z,99178.28
2024-04-23T07:59:21.748Z,99158.81
2024-04-23T08:02:07.994Z,99190.00
2024-04-23T08:04:55.224Z,99174.72
2024-04-23T08:07:41.650Z,99168.09
2024-04-23T08:10:28.321Z,99176.34
2024-04-23T08:13:14.790Z,99148.75
2024-04-23T08:16:01.564Z,99175.69
2024-04-23T08:18:48.035Z,99156.53
2024-04-23T08:21:37.010Z,99166.75
2024-04-23T08:24:23.714Z,99153.38
2024-04-23T08:27:10.426Z,99153.84
2024-04-23T08:29:57.078Z,99122.03
2024-04-23T08:32:43.826Z,99136.59
2024-04-23T08:35:30.548Z,99126.31
2024-04-23T08:38:17.126Z,99150.34
2024-04-23T08:41:06.007Z,99143.69
2024-04-23T08:44:03.490Z,99144.59
2024-04-23T08:46:50.136Z,99126.38
2024-04-23T08:49:37.354Z,99140.53
2024-04-23T08:52:24.061Z,99144.38
2024-04-23T08:55:10.771Z,99108.53
2024-04-23T08:57:58.003Z,99107.47
2024-04-23T09:00:51.824Z,99114.88
2024-04-23T09:03:48.354Z,99115.09
2024-04-23T09:06:37.469Z,99131.78
2024-04-23T09:09:26.530Z,99127.41
2024-04-23T09:12:13.242Z,99133.69
2024-04-23T09:15:00.778Z,99132.06
2024-04-23T09:17:56.800Z,99113.94
2024-04-23T09:20:43.651Z,99131.47
2024-04-23T09:23:34.008Z,99104.66
2024-04-23T09:26:26.313Z,99096.16
2024-04-23T09:29:13.597Z,99119.41
2024-04-23T09:32:01.759Z,99098.81
2024-04-23T09:34:57.483Z,99107.97
2024-04-23T09:37:50.608Z,99057.91
2024-04-23T09:40:43.644Z,99110.53
2024-04-23T09:43:30.688Z,99087.41
2024-04-23T09:46:17.647Z,99109.44
2024-04-23T09:49:05.191Z,99102.72
2024-04-23T09:51:53.792Z,99099.41
2024-04-23T09:54:47.230Z,99100.75
2024-04-23T09:57:35.498Z,99085.66
2024-04-23T10:00:22.354Z,99064.22
2024-04-23T10:03:15.893Z,99092.53
2024-04-23T10:06:08.970Z,99092.69
2024-04-23T10:09:06.052Z,99094.13
2024-04-23T10:12:22.197Z,99078.09
2024-04-23T10:15:20.010Z,99085.81
2024-04-23T10:18:13.984Z,99080.97
2024-04-23T10:21:02.793Z,99060.53
2024-04-23T10:23:52.795Z,99063.44
2024-04-23T10:26:44.169Z,99071.41
2024-04-23T10:29:31.781Z,99053.38
2024-04-23T10:32:20.642Z,99070.03
2024-04-23T10:35:09.224Z,99043.50
2024-04-23T10:37:55.592Z,99059.91
2024-04-23T10:40:49.899Z,99031.56
2024-04-23T10:43:43.162Z,99014.53
2024-04-23T10:46:29.995Z,99033.53
2024-04-23T10:49:16.921Z,99047.41
2024-04-23T10:52:03.503Z,99021.59
2024-04-23T10:54:51.774Z,99040.41
2024-04-23T10:57:38.525Z,99044.78
2024-04-23T11:00:37.377Z,99043.09
2024-04-23T11:03:32.220Z,98959.56
2024-04-23T11:06:22.521Z,99009.41
2024-04-23T11:09:21.129Z,99019.03
2024-04-23T11:12:22.772Z,99020.78
2024-04-23T11:15:20.249Z,98996.56
2024-04-23T11:18:11.218Z,98999.00
2024-04-23T11:21:01.050Z,98999.19
2024-04-23T11:23:51.339Z,99002.75
2024-04-23T11:26:40.686Z,99000.19
2024-04-23T11:29:28.160Z,99004.47
2024-04-23T11:32:16.266Z,98984.63
2024-04-23T11:35:08.539Z,98997.56
2024-04-23T11:37:58.563Z,98994.06
2024-04-23T11:40:45.690Z,98976.00
2024-04-23T11:43:32.306Z,98971.66
2024-04-23T11:46:19.093Z,98914.88
2024-04-23T11:49:05.733Z,98978.63
2024-04-23T11:51:53.337Z,98963.09
2024-04-23T11:54:41.760Z,98977.72
2024-04-23T11:57:28.360Z,98973.47
2024-04-23T12:00:14.960Z,98951.06
2024-04-23T12:03:04.110Z,98958.84
2024-04-23T12:05:51.035Z,98916.63
2024-04-23T12:08:37.759Z,98982.94
2024-04-23T12:11:24.531Z,98941.56
2024-04-23T12:14:11.959Z,98953.63
2024-04-23T12:17:05.551Z,98955.34
2024-04-23T12:19:51.873Z,98956.22
2024-04-23T12:22:38.441Z,98926.09
2024-04-23T12:25:25.163Z,98950.22
2024-04-23T12:28:12.702Z,98947.63
2024-04-23T12:30:59.306Z,98915.75
2024-04-23T12:33:46.020Z,98931.22
2024-04-23T12:36:34.414Z,98925.06
2024-04-23T12:39:22.352Z,98856.09
2024-04-23T12:42:13.844Z,98931.19
2024-04-23T12:45:00.370Z,98944.16
2024-04-23T12:47:46.770Z,98915.75
2024-04-23T12:50:33.487Z,98913.06
2024-04-23T12:53:20.393Z,98925.84
2024-04-23T12:56:08.742Z,98916.25
2024-04-23T12:58:57.808Z,98931.69
2024-04-23T13:04:31.325Z,98919.41
2024-04-23T13:07:18.120Z,98909.78
2024-04-23T13:10:04.512Z,98903.31
2024-04-23T13:12:51.021Z,98898.13
2024-04-23T13:15:38.012Z,98890.84
2024-04-23T13:18:24.410Z,98892.84
2024-04-23T13:21:11.039Z,98851.75
2024-04-23T13:23:57.532Z,98893.00
2024-04-23T13:26:44.260Z,98887.06
2024-04-23T13:29:33.636Z,98894.94
2024-04-23T13:32:20.338Z,98826.63
2024-04-23T13:35:07.127Z,98870.06
2024-04-23T13:37:54.260Z,98875.00
2024-04-23T13:40:40.927Z,98774.94
2024-04-23T13:43:27.485Z,98829.69
2024-04-23T13:46:14.033Z,98826.81
2024-04-23T13:49:00.678Z,98862.38
2024-04-23T13:51:47.139Z,98839.06
2024-04-23T13:54:33.783Z,98841.09
2024-04-23T13:57:20.860Z,98852.56
2024-04-23T14:00:08.644Z,98845.75
2024-04-23T14:02:55.485Z,98830.41
2024-04-23T14:05:43.466Z,98827.75
2024-04-23T14:08:32.694Z,98850.91
2024-04-23T14:11:19.369Z,98840.41
2024-04-23T14:14:07.486Z,98809.31
2024-04-23T14:16:54.259Z,98810.16
2024-04-23T14:19:40.466Z,98812.09
2024-04-23T14:22:27.084Z,98826.81
2024-04-23T14:25:14.082Z,98849.16
2024-04-23T14:28:00.475Z,98824.19
2024-04-23T14:30:47.190Z,98827.81
2024-04-23T14:33:34.393Z,98821.69
2024-04-23T14:36:20.970Z,98756.00
2024-04-23T14:39:07.632Z,98819.06
2024-04-23T14:41:54.429Z,98756.25
2024-04-23T14:44:41.244Z,98811.88
2024-04-23T14:47:27.791Z,98824.84
2024-04-23T14:50:16.964Z,98799.84
2024-04-23T14:53:03.562Z,98807.03
2024-04-23T14:56:03.295Z,98748.25
2024-04-23T14:58:53.355Z,98819.66
2024-04-23T15:01:39.896Z,98781.81
2024-04-23T15:04:26.262Z,98793.06
2024-04-23T15:07:14.455Z,98803.44
2024-04-23T15:10:01.163Z,98802.63
2024-04-23T15:12:48.739Z,98748.56
2024-04-23T15:15:35.403Z,98808.63
2024-04-23T15:18:22.183Z,98818.13
2024-04-23T15:21:10.561Z,98821.59
2024-04-23T15:23:57.004Z,98766.41
2024-04-23T15:26:43.879Z,98794.84
2024-04-23T15:29:30.686Z,98778.41
2024-04-23T15:32:17.441Z,98785.91
2024-04-23T15:35:04.402Z,98776.41
2024-04-23T15:37:50.633Z,98797.81
2024-04-23T15:40:37.202Z,98754.84
2024-04-23T15:43:23.711Z,98787.78
2024-04-23T15:46:14.785Z,98770.63
2024-04-23T15:49:01.642Z,98789.34
2024-04-23T15:51:48.118Z,98782.56
2024-04-23T15:54:34.872Z,98772.38
2024-04-23T15:57:25.116Z,98815.63
2024-04-23T16:00:12.300Z,98792.50
2024-04-23T16:02:59.023Z,98781.38
2024-04-23T16:05:45.734Z,98788.25
2024-04-23T16:08:32.809Z,98802.03
2024-04-23T16:11:19.700Z,98813.19
2024-04-23T16:14:07.586Z,98790.81
2024-04-23T16:16:54.292Z,98788.22
2024-04-23T16:19:40.741Z,98736.56
2024-04-23T16:22:30.862Z,98790.66
2024-04-23T16:25:17.576Z,98814.84
2024-04-23T16:28:04.211Z,98758.09
2024-04-23T16:30:50.490Z,98809.59
2024-04-23T16:33:39.281Z,98792.50
2024-04-23T16:36:28.337Z,98786.50
2024-04-23T16:39:16.235Z,98797.72
2024-04-23T16:42:04.939Z,98779.66
2024-04-23T16:44:52.009Z,98735.84
2024-04-23T16:47:38.779Z,98808.09
2024-04-23T16:50:25.415Z,98728.97
2024-04-23T16:53:11.944Z,98791.78
2024-04-23T16:55:59.371Z,98779.72
2024-04-23T16:58:45.754Z,98779.72
2024-04-23T17:01:32.317Z,98740.16
2024-04-23T17:04:19.002Z,98785.72
2024-04-23T17:07:05.561Z,98766.81
2024-04-23T17:09:52.068Z,98764.25
2024-04-23T17:12:38.870Z,98787.47
2024-04-23T17:15:27.824Z,98784.06
2024-04-23T17:18:14.245Z,98745.31
2024-04-23T17:21:00.784Z,98767.69
2024-04-23T17:23:47.828Z,98727.25
2024-04-23T17:26:34.347Z,98773.69
2024-04-23T17:29:21.143Z,98704.84
2024-04-23T17:32:07.979Z,98710.00
2024-04-23T17:34:54.235Z,98728.94
2024-04-23T17:37:42.162Z,98772.00
2024-04-23T17:40:28.519Z,98765.97
2024-04-23T17:43:17.912Z,98769.41
2024-04-23T17:46:05.962Z,98788.34
2024-04-23T17:48:52.688Z,98772.84
2024-04-23T17:51:39.293Z,98784.88
2024-04-23T17:54:25.816Z,98771.13
2024-04-23T17:57:12.884Z,98782.31
2024-04-23T17:59:59.267Z,98778.84
2024-04-23T18:02:46.082Z,98789.19
2024-04-23T18:05:32.811Z,98764.22
2024-04-23T18:08:19.537Z,98778.00
2024-04-23T18:11:08.318Z,98775.44
2024-04-23T18:13:54.927Z,98789.19
2024-04-23T18:16:41.801Z,98784.06
2024-04-23T18:19:28.347Z,98771.13
2024-04-23T18:22:14.837Z,98746.13
2024-04-23T18:25:01.343Z,98766.81
2024-04-23T18:27:47.958Z,98789.19
2024-04-23T18:30:36.551Z,98778.00
2024-04-23T18:33:25.793Z,98796.91
2024-04-23T18:36:12.469Z,98766.75
2024-04-23T18:39:00.124Z,98774.53
2024-04-23T18:41:46.698Z,98775.34
2024-04-23T18:44:33.562Z,98768.44
2024-04-23T18:47:20.039Z,98796.84
2024-04-23T18:50:07.492Z,98722.81
2024-04-23T18:52:54.022Z,98730.47
2024-04-23T18:55:40.719Z,98778.63
2024-04-23T18:58:28.938Z,98767.44
2024-04-23T19:01:18.590Z,98727.75
2024-04-23T19:04:05.572Z,98766.44
2024-04-23T19:06:52.432Z,98720.78
2024-04-23T19:09:38.998Z,98779.25
2024-04-23T19:12:25.727Z,98788.63
2024-04-23T19:15:12.413Z,98763.56
2024-04-23T19:18:01.104Z,98778.13
2024-04-23T19:20:49.061Z,98796.94
2024-04-23T19:23:36.305Z,98783.94
2024-04-23T19:26:22.668Z,98784.72
2024-04-23T19:29:09.574Z,98771.59
2024-04-23T19:31:56.269Z,98770.50
2024-04-23T19:34:42.988Z,98813.38
2024-04-23T19:37:31.160Z,98808.81
2024-04-23T19:40:17.931Z,98793.22
2024-04-23T19:43:04.484Z,98794.72
2024-04-23T19:45:50.921Z,98807.34
2024-04-23T19:48:38.077Z,98779.38
2024-04-23T19:51:25.067Z,98794.59
2024-04-23T19:54:11.473Z,98783.94
2024-04-23T19:56:58.239Z,98779.28
2024-04-23T19:59:46.992Z,98772.19
2024-04-23T20:02:33.425Z,98773.06
2024-04-23T20:05:20.534Z,98787.44
2024-04-23T20:08:07.032Z,98793.34
2024-04-23T20:10:53.885Z,98782.03
2024-04-23T20:13:41.131Z,98737.66
2024-04-23T20:16:27.427Z,98783.44
2024-04-23T20:19:14.218Z,98784.09
2024-04-23T20:22:00.806Z,98790.91
2024-04-23T20:24:47.463Z,98769.19
2024-04-23T20:27:34.014Z,98761.09
2024-04-23T20:30:20.833Z,98785.06
2024-04-23T20:33:07.383Z,98792.81
2024-04-23T20:35:53.653Z,98769.28
2024-04-23T20:38:40.441Z,98743.06
2024-04-23T20:41:27.206Z,98758.44
2024-04-23T20:44:13.723Z,98756.63
2024-04-23T20:47:00.492Z,98714.19
2024-04-23T20:49:47.017Z,98792.66
2024-04-23T20:52:33.666Z,98749.38
2024-04-23T20:55:20.397Z,98717.16
2024-04-23T20:58:07.131Z,98789.94
2024-04-23T21:00:53.893Z,98776.66
2024-04-23T21:03:40.870Z,98794.44
2024-04-23T21:06:27.381Z,98781.31
2024-04-23T21:09:13.888Z,98772.59
2024-04-23T21:12:00.625Z,98782.16
2024-04-23T21:14:47.101Z,98780.47
2024-04-23T21:17:33.744Z,98761.56
2024-04-23T21:20:20.500Z,98770.28
2024-04-23T21:23:07.252Z,98753.84
2024-04-23T21:25:53.545Z,98737.31
2024-04-23T21:28:40.795Z,98739.09
2024-04-23T21:31:27.173Z,98734.06
2024-04-23T21:34:13.782Z,98752.16
2024-04-23T21:37:00.376Z,98763.97
2024-04-23T21:39:47.318Z,98742.00
2024-04-23T21:42:40.965Z,98759.72
2024-04-23T21:45:29.575Z,98734.31
2024-04-23T21:48:16.601Z,98758.50
2024-04-23T21:51:10.719Z,98761.56
2024-04-23T21:53:56.911Z,98755.63
2024-04-23T21:56:43.763Z,98777.59
2024-04-23T21:59:32.007Z,98772.25
2024-04-23T22:02:21.047Z,98660.38
2024-04-23T22:05:07.818Z,98771.13
2024-04-23T22:07:54.201Z,98777.78
2024-04-23T22:10:40.761Z,98612.53
2024-04-23T22:13:27.202Z,98724.25
2024-04-23T22:16:13.779Z,98640.22
2024-04-23T22:19:00.649Z,98638.41
2024-04-23T22:21:46.989Z,98601.97
2024-04-23T22:24:35.655Z,98746.25
2024-04-23T22:27:22.634Z,98738.03
2024-04-23T22:30:09.387Z,98692.88
2024-04-23T22:32:56.118Z,98590.75
2024-04-23T22:35:42.349Z,98641.53
2024-04-23T22:38:29.094Z,98718.59
2024-04-23T22:41:15.860Z,98682.34
2024-04-23T22:44:02.429Z,98624.28
2024-04-23T22:46:49.069Z,98773.00
2024-04-23T22:49:35.631Z,98759.59
2024-04-23T22:52:22.148Z,98694.47
2024-04-23T22:55:08.981Z,98645.91
2024-04-23T22:57:55.577Z,98586.06
2024-04-23T23:00:42.196Z,98771.81
2024-04-23T23:03:29.045Z,98646.59
2024-04-23T23:06:15.886Z,98703.50
2024-04-23T23:09:03.059Z,98664.41
2024-04-23T23:11:49.972Z,98750.22
2024-04-23T23:14:37.016Z,98716.28
2024-04-23T23:17:23.375Z,98677.50
2024-04-23T23:20:10.393Z,98579.53
2024-04-23T23:22:56.982Z,98600.59
2024-04-23T23:25:44.113Z,98646.75
2024-04-23T23:28:30.801Z,98600.16
2024-04-23T23:31:17.558Z,98612.97
2024-04-23T23:34:04.262Z,98703.63
2024-04-23T23:36:51.025Z,98535.69
2024-04-23T23:39:37.827Z,98641.34
2024-04-23T23:42:24.413Z,98570.97
2024-04-23T23:45:11.872Z,98727.94
2024-04-23T23:47:58.364Z,98572.00
2024-04-23T23:50:44.788Z,98584.88
2024-04-23T23:53:31.398Z,98608.13
2024-04-23T23:56:18.012Z,98538.63
2024-04-23T23:59:04.626Z,98556.66
